Time;durP1;ratioP1;P1;durP2;ratioP2;P2;SDS_P1;SDS_P2;PMS_P1;PMS_P2;Temp;Humidity;BMP_temperature;BMP_pressure;BME280_temperature;BME280_humidity;BME280_pressure;Samples;Min_cycle;Max_cycle;Signal;HPM_P1;HPM_P2
2021/05/17 00:01:44;;;;;;;2.10;0.50;;;12.60;99.90;;;;;;5025155;28;20475;-78
2021/05/17 00:04:13;;;;;;;1.23;0.43;;;12.50;99.90;;;;;;5023804;28;20993;-78
2021/05/17 00:06:43;;;;;;;0.80;0.50;;;12.70;99.90;;;;;;5026324;28;20459;-77
2021/05/17 00:09:11;;;;;;;0.73;0.50;;;12.60;99.90;;;;;;5059945;28;20535;-77
2021/05/17 00:11:39;;;;;;;1.27;0.67;;;12.70;99.90;;;;;;5026841;28;20573;-78
2021/05/17 00:14:07;;;;;;;0.60;0.40;;;12.70;99.90;;;;;;5023662;28;21042;-76
2021/05/17 00:16:36;;;;;;;0.50;0.50;;;12.70;99.90;;;;;;5029211;28;20457;-78
2021/05/17 00:19:05;;;;;;;1.07;0.50;;;12.50;99.90;;;;;;5026537;28;20515;-78
2021/05/17 00:21:33;;;;;;;0.63;0.43;;;12.50;99.90;;;;;;5024054;28;21062;-78
2021/05/17 00:24:02;;;;;;;0.83;0.50;;;12.60;99.90;;;;;;5020721;28;20469;-80
2021/05/17 00:26:30;;;;;;;0.40;0.40;;;12.60;99.90;;;;;;5030911;28;20466;-79
2021/05/17 00:28:58;;;;;;;0.50;0.50;;;12.60;99.90;;;;;;5018723;28;20960;-80
2021/05/17 00:31:27;;;;;;;0.43;0.43;;;12.70;99.90;;;;;;5030887;28;20530;-80
2021/05/17 00:33:55;;;;;;;2.20;0.40;;;12.90;46.40;;;;;;5030278;28;20457;-80
2021/05/17 00:36:23;;;;;;;0.50;0.50;;;12.90;1.00;;;;;;5031127;28;20480;-80
2021/05/17 00:38:52;;;;;;;0.60;0.40;;;12.80;1.00;;;;;;5033342;28;20965;-79
2021/05/17 00:41:21;;;;;;;1.17;0.50;;;12.60;35.60;;;;;;5034691;28;20527;-78
2021/05/17 00:43:52;;;;;;;0.97;0.47;;;12.50;99.90;;;;;;5027553;28;20534;-79
2021/05/17 00:46:21;;;;;;;0.77;0.47;;;12.50;99.90;;;;;;5031387;28;20463;-78
2021/05/17 00:48:49;;;;;;;0.83;0.80;;;12.60;99.90;;;;;;5059017;28;20465;-79
2021/05/17 00:51:17;;;;;;;0.40;0.40;;;12.70;83.20;;;;;;5028766;28;20491;-80
2021/05/17 00:53:45;;;;;;;1.00;0.50;;;12.70;35.20;;;;;;5027301;28;20487;-77
2021/05/17 00:56:14;;;;;;;0.50;0.50;;;12.70;55.30;;;;;;5029391;28;20977;-78
2021/05/17 00:58:43;;;;;;;0.50;0.50;;;12.80;83.60;;;;;;5023086;28;20525;-79
2021/05/17 01:01:11;;;;;;;0.80;0.40;;;12.70;32.70;;;;;;5024124;28;20529;-78
2021/05/17 01:03:38;;;;;;;0.67;0.67;;;12.70;92.60;;;;;;5027895;28;20470;-79
2021/05/17 01:06:06;;;;;;;1.40;0.60;;;12.80;42.90;;;;;;5030463;28;20492;-78
2021/05/17 01:08:40;;;;;;;0.50;0.50;;;12.70;99.90;;;;;;5030076;28;20460;-77
2021/05/17 01:11:08;;;;;;;0.63;0.47;;;12.60;99.90;;;;;;5027605;28;20475;-79
2021/05/17 01:13:36;;;;;;;0.50;0.50;;;12.50;99.90;;;;;;5042984;28;20454;-78
2021/05/17 01:16:06;;;;;;;3.07;0.70;;;12.60;99.90;;;;;;5045390;28;20454;-78
2021/05/17 01:18:34;;;;;;;0.60;0.60;;;12.50;99.90;;;;;;5029598;28;20463;-78
2021/05/17 01:21:02;;;;;;;0.70;0.50;;;12.60;99.90;;;;;;5029686;28;20855;-81
2021/05/17 01:23:43;;;;;;;1.43;0.40;;;12.70;99.90;;;;;;5029755;28;20458;-77
2021/05/17 01:26:12;;;;;;;0.60;0.57;;;12.80;93.00;;;;;;5030492;28;20455;-79
2021/05/17 01:28:41;;;;;;;0.90;0.47;;;12.70;46.80;;;;;;5028100;28;20476;-79
2021/05/17 01:31:10;;;;;;;1.37;0.40;;;12.50;99.90;;;;;;5029484;28;20486;-79
2021/05/17 01:33:40;;;;;;;0.50;0.50;;;12.30;99.90;;;;;;5021896;28;20464;-78
2021/05/17 01:36:10;;;;;;;0.50;0.50;;;12.30;99.90;;;;;;5028849;28;20475;-78
2021/05/17 01:38:40;;;;;;;1.07;0.60;;;12.30;99.90;;;;;;5031007;28;20498;-79
2021/05/17 01:41:10;;;;;;;1.10;0.50;;;12.50;99.90;;;;;;5029311;28;20555;-78
2021/05/17 01:43:40;;;;;;;0.50;0.50;;;12.40;99.90;;;;;;5029303;28;20537;-78
2021/05/17 01:46:12;;;;;;;0.53;0.50;;;12.40;99.90;;;;;;5028971;28;20471;-79
2021/05/17 01:48:42;;;;;;;2.40;0.50;;;12.50;99.90;;;;;;5026340;28;20462;-79
2021/05/17 01:51:12;;;;;;;0.40;0.40;;;12.30;99.90;;;;;;5028222;28;20479;-79
2021/05/17 01:53:41;;;;;;;1.33;0.50;;;12.50;99.90;;;;;;5026813;28;20459;-79
2021/05/17 01:56:10;;;;;;;1.07;0.57;;;12.50;99.90;;;;;;5029768;28;20521;-78
2021/05/17 01:58:38;;;;;;;0.50;0.50;;;12.50;99.90;;;;;;5025483;28;20522;-79
2021/05/17 02:01:09;;;;;;;0.40;0.40;;;12.40;99.90;;;;;;5024610;28;20499;-81
2021/05/17 02:03:38;;;;;;;1.57;0.60;;;12.50;99.90;;;;;;5025898;28;20489;-79
2021/05/17 02:06:07;;;;;;;0.50;0.50;;;12.40;99.90;;;;;;5023381;28;20965;-81
2021/05/17 02:08:41;;;;;;;0.50;0.50;;;12.30;99.90;;;;;;5027497;28;20893;-78
2021/05/17 02:11:11;;;;;;;0.93;0.57;;;12.10;99.90;;;;;;5029082;28;20533;-80
2021/05/17 02:13:39;;;;;;;1.23;0.50;;;12.10;1.00;;;;;;5028293;28;20463;-78
2021/05/17 02:16:11;;;;;;;0.40;0.40;;;12.10;1.00;;;;;;5029591;28;20468;-80
2021/05/17 02:18:40;;;;;;;0.70;0.53;;;12.10;1.00;;;;;;5028393;28;20491;-79
2021/05/17 02:21:09;;;;;;;2.75;0.80;;;12.20;1.00;;;;;;5030176;28;20455;-78
2021/05/17 02:23:37;;;;;;;1.13;0.47;;;12.10;99.90;;;;;;5030374;28;20204;-77
2021/05/17 02:26:06;;;;;;;0.43;0.43;;;11.90;1.00;;;;;;5030244;28;20463;-77
2021/05/17 02:28:37;;;;;;;0.67;0.50;;;11.80;1.00;;;;;;5028201;28;20469;-78
2021/05/17 02:31:06;;;;;;;0.50;0.50;;;11.70;1.00;;;;;;5039799;28;20528;-78
2021/05/17 02:33:34;;;;;;;1.03;0.40;;;11.50;99.90;;;;;;5028632;28;20481;-77
2021/05/17 02:36:03;;;;;;;1.10;0.50;;;11.40;1.00;;;;;;5028197;28;21019;-77
2021/05/17 02:38:31;;;;;;;1.87;0.70;;;11.30;99.90;;;;;;5028074;28;20450;-78
2021/05/17 02:41:00;;;;;;;0.63;0.60;;;11.50;1.00;;;;;;5041962;28;20553;-78
2021/05/17 02:43:30;;;;;;;2.70;0.93;;;11.80;99.90;;;;;;5025249;28;20461;-76
2021/05/17 02:46:00;;;;;;;0.57;0.50;;;12.00;1.00;;;;;;5057285;28;20474;-75
2021/05/17 02:48:29;;;;;;;0.50;0.47;;;11.90;1.00;;;;;;5027538;28;20975;-76
2021/05/17 02:50:58;;;;;;;0.50;0.50;;;11.70;1.00;;;;;;5028152;28;20501;-75
2021/05/17 02:53:30;;;;;;;0.60;0.40;;;11.50;99.90;;;;;;5028170;28;20466;-75
2021/05/17 02:56:06;;;;;;;0.50;0.50;;;11.40;99.90;;;;;;5027578;28;20957;-76
2021/05/17 02:58:37;;;;;;;0.60;0.40;;;11.40;99.90;;;;;;5025925;28;20912;-75
2021/05/17 03:01:07;;;;;;;1.23;0.50;;;11.70;1.00;;;;;;5026576;28;20442;-76
2021/05/17 03:03:43;;;;;;;0.50;0.50;;;11.90;1.00;;;;;;5025386;28;20457;-76
2021/05/17 03:06:18;;;;;;;0.70;0.40;;;11.70;1.00;;;;;;5027744;28;20927;-77
2021/05/17 03:08:53;;;;;;;3.10;0.90;;;11.70;66.00;;;;;;5027156;28;20458;-76
2021/05/17 03:11:22;;;;;;;1.17;0.40;;;12.00;1.00;;;;;;5026591;28;20536;-77
2021/05/17 03:13:53;;;;;;;0.47;0.47;;;11.90;1.00;;;;;;5026918;28;20463;-76
2021/05/17 03:16:22;;;;;;;0.70;0.50;;;11.80;1.00;;;;;;5019586;28;20463;-76
2021/05/17 03:18:52;;;;;;;0.50;0.47;;;11.90;1.00;;;;;;5025695;28;20463;-76
2021/05/17 03:21:21;;;;;;;0.83;0.50;;;11.90;1.00;;;;;;5027258;28;21031;-76
2021/05/17 03:23:50;;;;;;;0.40;0.40;;;12.10;1.00;;;;;;5025831;28;20897;-76
2021/05/17 03:26:20;;;;;;;0.43;0.40;;;11.70;1.00;;;;;;5024283;28;21040;-77
2021/05/17 03:28:47;;;;;;;0.70;0.60;;;11.80;64.80;;;;;;5022711;28;20843;-75
2021/05/17 03:31:16;;;;;;;2.93;0.50;;;11.70;99.90;;;;;;5026936;28;20485;-76
2021/05/17 03:33:44;;;;;;;1.03;0.40;;;12.10;1.00;;;;;;5026111;28;21046;-74
2021/05/17 03:36:11;;;;;;;0.70;0.60;;;11.90;1.00;;;;;;5026488;28;20487;-76
2021/05/17 03:38:39;;;;;;;0.60;0.57;;;11.60;1.00;;;;;;5026237;28;20462;-76
2021/05/17 03:41:07;;;;;;;0.50;0.50;;;11.60;99.90;;;;;;5024297;28;20504;-76
2021/05/17 03:43:35;;;;;;;1.00;0.57;;;11.50;99.90;;;;;;5018348;28;20494;-76
2021/05/17 03:46:02;;;;;;;2.60;0.80;;;11.60;6.80;;;;;;5022505;28;21055;-76
2021/05/17 03:48:31;;;;;;;0.87;0.40;;;11.70;1.00;;;;;;5026713;28;20955;-77
2021/05/17 03:50:58;;;;;;;0.60;0.50;;;11.40;99.90;;;;;;5026862;28;20467;-76
2021/05/17 03:53:26;;;;;;;0.50;0.50;;;11.40;99.90;;;;;;5023865;28;20515;-77
2021/05/17 03:55:54;;;;;;;0.53;0.50;;;11.40;99.90;;;;;;5027057;28;20537;-77
2021/05/17 03:58:22;;;;;;;0.50;0.50;;;11.20;27.30;;;;;;5025736;28;20463;-77
2021/05/17 04:00:49;;;;;;;0.40;0.40;;;11.40;99.90;;;;;;5022347;28;20463;-77
2021/05/17 04:03:19;;;;;;;0.63;0.60;;;11.30;99.90;;;;;;5036581;28;20468;-75
2021/05/17 04:06:00;;;;;;;3.90;0.97;;;11.60;99.90;;;;;;5027617;28;20466;-76
2021/05/17 04:14:00;;;;;;;1.43;0.50;;;11.80;1.00;;;;;;5010513;28;20480;-77
2021/05/17 04:16:28;;;;;;;1.33;0.60;;;11.90;1.00;;;;;;5028153;28;20446;-78
2021/05/17 04:18:56;;;;;;;0.40;0.40;;;11.80;99.90;;;;;;5024815;28;20482;-78
2021/05/17 04:21:24;;;;;;;2.60;0.70;;;11.50;1.00;;;;;;5028175;28;20513;-79
2021/05/17 04:23:52;;;;;;;1.77;0.50;;;11.60;1.00;;;;;;5025308;28;20468;-79
2021/05/17 04:26:20;;;;;;;0.70;0.50;;;11.70;1.00;;;;;;5027495;28;20531;-78
2021/05/17 04:28:47;;;;;;;0.63;0.50;;;11.90;99.90;;;;;;5026377;28;20518;-76
2021/05/17 04:31:15;;;;;;;0.50;0.50;;;11.80;99.90;;;;;;5024380;28;21412;-79
2021/05/17 04:33:43;;;;;;;1.30;0.40;;;11.60;1.00;;;;;;5021760;28;20468;-78
2021/05/17 04:36:10;;;;;;;0.40;0.40;;;11.50;41.90;;;;;;5030484;28;20553;-80
2021/05/17 04:38:39;;;;;;;0.50;0.50;;;11.60;1.00;;;;;;5024956;28;20449;-79
2021/05/17 04:41:06;;;;;;;0.40;0.40;;;11.70;99.90;;;;;;5025999;28;20461;-78
2021/05/17 04:43:34;;;;;;;0.40;0.40;;;11.70;99.90;;;;;;5027893;28;20513;-77
2021/05/17 04:46:02;;;;;;;0.40;0.40;;;11.70;99.90;;;;;;5025058;28;20491;-79
2021/05/17 04:48:30;;;;;;;0.70;0.50;;;11.70;86.20;;;;;;5027445;28;20450;-79
2021/05/17 04:50:58;;;;;;;0.60;0.50;;;11.70;1.00;;;;;;5020061;28;20465;-74
2021/05/17 04:53:25;;;;;;;0.60;0.60;;;11.70;1.00;;;;;;5054958;28;20833;-78
2021/05/17 04:55:54;;;;;;;0.63;0.40;;;11.60;5.70;;;;;;5022619;28;21267;-78
2021/05/17 04:58:21;;;;;;;0.40;0.40;;;11.70;1.00;;;;;;5025000;28;20459;-77
2021/05/17 05:00:49;;;;;;;0.43;0.43;;;11.60;1.00;;;;;;5021111;28;20467;-78
2021/05/17 05:03:18;;;;;;;1.07;0.40;;;11.40;1.00;;;;;;5023693;28;20475;-79
2021/05/17 05:05:45;;;;;;;0.40;0.40;;;11.40;1.00;;;;;;5023295;28;20460;-77
2021/05/17 05:08:13;;;;;;;0.70;0.70;;;11.40;1.00;;;;;;5023624;28;20474;-79
2021/05/17 05:10:40;;;;;;;0.40;0.40;;;11.60;1.00;;;;;;5021735;28;20460;-77
2021/05/17 05:13:09;;;;;;;0.57;0.50;;;11.70;1.00;;;;;;5023901;28;20490;-77
2021/05/17 05:15:36;;;;;;;0.40;0.40;;;11.90;1.00;;;;;;5024305;28;20460;-77
2021/05/17 05:18:04;;;;;;;0.60;0.50;;;11.90;1.00;;;;;;5025194;28;20467;-77
2021/05/17 05:20:33;;;;;;;3.43;0.53;;;11.70;1.00;;;;;;5023991;28;20508;-78
2021/05/17 05:23:02;;;;;;;0.40;0.40;;;11.60;1.00;;;;;;5021083;28;20469;-77
2021/05/17 05:25:39;;;;;;;0.50;0.50;;;11.50;1.00;;;;;;5026033;28;20464;-77
2021/05/17 05:28:07;;;;;;;1.00;0.40;;;11.70;1.00;;;;;;5025841;28;20462;-78
2021/05/17 05:30:48;;;;;;;1.33;0.50;;;11.90;1.00;;;;;;5024791;28;20512;-79
2021/05/17 05:33:16;;;;;;;0.50;0.50;;;11.70;1.00;;;;;;5027647;28;20486;-81
2021/05/17 05:35:45;;;;;;;0.50;0.50;;;11.70;1.00;;;;;;5025166;28;20475;-78
2021/05/17 05:38:13;;;;;;;0.43;0.43;;;11.60;1.00;;;;;;5039916;28;20520;-78
2021/05/17 05:40:41;;;;;;;1.03;0.50;;;11.70;1.00;;;;;;5025705;28;20900;-77
2021/05/17 05:43:09;;;;;;;0.40;0.40;;;11.90;1.00;;;;;;5025539;28;20484;-77
2021/05/17 05:45:44;;;;;;;0.40;0.40;;;11.80;1.00;;;;;;5027496;28;20993;-79
2021/05/17 05:48:12;;;;;;;0.77;0.40;;;11.80;1.00;;;;;;5025149;28;20618;-77
2021/05/17 05:50:45;;;;;;;0.40;0.40;;;12.10;1.00;;;;;;5027149;28;20464;-77
2021/05/17 05:53:13;;;;;;;0.90;0.40;;;12.10;1.00;;;;;;5026112;28;20489;-77
2021/05/17 05:55:41;;;;;;;0.50;0.50;;;12.00;1.00;;;;;;5027156;28;20463;-76
2021/05/17 05:58:08;;;;;;;0.40;0.40;;;12.10;1.00;;;;;;5026771;28;20462;-77
2021/05/17 06:00:37;;;;;;;0.40;0.40;;;12.10;1.00;;;;;;5026693;28;20869;-78
2021/05/17 06:03:05;;;;;;;0.40;0.40;;;11.90;1.00;;;;;;5026329;28;20857;-78
2021/05/17 06:05:34;;;;;;;0.50;0.40;;;12.00;1.00;;;;;;5033397;28;20486;-79
2021/05/17 06:08:02;;;;;;;0.50;0.50;;;11.90;1.00;;;;;;5027170;28;20471;-78
2021/05/17 06:10:31;;;;;;;1.07;0.50;;;11.60;1.00;;;;;;5029274;28;20463;-77
2021/05/17 06:12:59;;;;;;;3.43;0.70;;;11.50;1.00;;;;;;5026873;28;20549;-78
2021/05/17 06:15:28;;;;;;;0.40;0.40;;;11.50;1.00;;;;;;5032129;28;20473;-79
2021/05/17 06:17:57;;;;;;;0.87;0.60;;;11.70;1.00;;;;;;5026344;28;20453;-78
2021/05/17 06:20:25;;;;;;;0.77;0.50;;;11.90;1.00;;;;;;5028651;28;21036;-79
2021/05/17 06:22:54;;;;;;;0.50;0.50;;;12.00;1.00;;;;;;5021744;28;20580;-80
2021/05/17 06:25:22;;;;;;;0.60;0.40;;;12.20;1.00;;;;;;5027606;28;20462;-79
2021/05/17 06:27:50;;;;;;;0.40;0.40;;;12.20;1.00;;;;;;5028201;28;20465;-77
2021/05/17 06:30:20;;;;;;;1.13;0.40;;;12.20;1.00;;;;;;5027676;28;20466;-80
2021/05/17 06:32:49;;;;;;;1.10;0.57;;;12.10;1.00;;;;;;5030552;28;20494;-77
2021/05/17 06:35:24;;;;;;;0.50;0.50;;;12.00;93.10;;;;;;5034637;28;20530;-78
2021/05/17 06:37:51;;;;;;;0.50;0.50;;;12.00;99.90;;;;;;5030194;28;20529;-78
2021/05/17 06:40:19;;;;;;;0.73;0.50;;;11.90;99.90;;;;;;5026905;28;20524;-78
2021/05/17 06:42:48;;;;;;;0.80;0.40;;;11.90;99.90;;;;;;5056912;28;20487;-77
2021/05/17 06:45:17;;;;;;;2.50;0.70;;;11.80;1.00;;;;;;5028971;28;20465;-77
2021/05/17 06:47:44;;;;;;;1.60;0.60;;;11.70;99.90;;;;;;5023649;28;20461;-77
2021/05/17 06:50:14;;;;;;;2.40;0.47;;;11.60;99.90;;;;;;5024714;28;21016;-77
2021/05/17 06:52:43;;;;;;;0.50;0.40;;;11.70;1.00;;;;;;5026869;28;20820;-78
2021/05/17 06:55:16;;;;;;;1.30;0.50;;;11.80;99.90;;;;;;5026272;28;20513;-78
2021/05/17 06:57:59;;;;;;;0.80;0.60;;;12.10;99.90;;;;;;5027407;28;20520;-78
2021/05/17 07:00:29;;;;;;;0.50;0.40;;;12.30;1.00;;;;;;5027149;28;20466;-78
2021/05/17 07:02:58;;;;;;;0.63;0.53;;;12.30;1.00;;;;;;5030947;28;20595;-77
2021/05/17 07:05:27;;;;;;;0.83;0.50;;;12.20;1.00;;;;;;5031924;28;20828;-77
2021/05/17 07:13:28;;;;;;;0.90;0.90;;;12.30;99.90;;;;;;5014164;28;20545;-78
2021/05/17 07:15:56;;;;;;;1.23;0.50;;;12.40;99.90;;;;;;5032590;28;20533;-79
2021/05/17 07:18:24;;;;;;;0.40;0.40;;;12.50;13.20;;;;;;5031163;28;20509;-79
2021/05/17 07:23:39;;;;;;;0.90;0.63;;;12.80;1.00;;;;;;5029320;28;20505;-78
2021/05/17 07:26:13;;;;;;;0.60;0.60;;;12.90;1.00;;;;;;5023648;28;21033;-77
2021/05/17 07:28:41;;;;;;;0.70;0.50;;;13.00;1.00;;;;;;5028196;28;20454;-78
2021/05/17 07:31:10;;;;;;;1.03;0.50;;;13.00;1.00;;;;;;5027052;28;20953;-77
2021/05/17 07:33:38;;;;;;;1.23;0.50;;;12.90;1.00;;;;;;5029169;28;20476;-80
2021/05/17 07:36:07;;;;;;;1.00;0.50;;;13.10;1.00;;;;;;5026690;28;20719;-76
2021/05/17 07:38:35;;;;;;;0.40;0.40;;;13.10;1.00;;;;;;5021926;28;20999;-79
2021/05/17 07:41:04;;;;;;;0.50;0.50;;;13.10;1.00;;;;;;5011711;28;20545;-78
2021/05/17 07:43:31;;;;;;;0.40;0.40;;;12.90;1.00;;;;;;5029983;28;20446;-79
2021/05/17 07:45:59;;;;;;;1.37;0.50;;;12.80;1.00;;;;;;5031598;28;20491;-78
2021/05/17 07:48:27;;;;;;;3.30;0.60;;;12.80;1.00;;;;;;5032441;28;20474;-76
2021/05/17 07:50:55;;;;;;;2.37;0.70;;;13.00;1.00;;;;;;5030480;28;20452;-77
2021/05/17 07:53:23;;;;;;;0.80;0.80;;;13.10;1.00;;;;;;5032031;28;20491;-78
2021/05/17 07:55:52;;;;;;;1.23;0.40;;;12.90;1.00;;;;;;5030531;28;20473;-77
2021/05/17 07:58:21;;;;;;;0.50;0.40;;;12.90;1.00;;;;;;5023761;28;20467;-79
2021/05/17 08:00:48;;;;;;;0.43;0.43;;;12.90;1.00;;;;;;5019120;28;20461;-78
2021/05/17 08:03:16;;;;;;;0.60;0.40;;;12.90;1.00;;;;;;5030929;28;20521;-78
2021/05/17 08:05:58;;;;;;;1.37;0.40;;;13.20;1.00;;;;;;5022774;28;20446;-78
2021/05/17 08:08:26;;;;;;;0.40;0.40;;;13.30;1.00;;;;;;5023681;28;20460;-77
2021/05/17 08:10:54;;;;;;;0.60;0.47;;;13.30;99.90;;;;;;5030744;28;20696;-78
2021/05/17 08:13:22;;;;;;;0.70;0.50;;;13.50;99.90;;;;;;5023830;28;20562;-77
2021/05/17 08:16:13;;;;;;;0.50;0.40;;;13.50;99.90;;;;;;5024973;28;20988;-78
2021/05/17 08:18:42;;;;;;;0.40;0.40;;;13.60;99.90;;;;;;5025947;28;20540;-77
2021/05/17 08:21:11;;;;;;;0.50;0.40;;;13.50;99.90;;;;;;5022293;28;20478;-77
2021/05/17 08:23:39;;;;;;;1.07;0.50;;;13.40;99.90;;;;;;5026562;28;20486;-78
2021/05/17 08:26:08;;;;;;;0.70;0.43;;;13.50;99.90;;;;;;5038615;28;20456;-77
2021/05/17 08:28:40;;;;;;;0.40;0.40;;;13.60;99.90;;;;;;5025554;28;20458;-79
2021/05/17 08:31:11;;;;;;;0.40;0.40;;;13.80;99.90;;;;;;5027279;28;20482;-78
2021/05/17 08:33:39;;;;;;;1.57;0.40;;;13.90;99.90;;;;;;5029914;28;20487;-77
2021/05/17 08:36:08;;;;;;;0.40;0.40;;;13.90;99.90;;;;;;5026281;28;20715;-78
2021/05/17 08:38:36;;;;;;;0.40;0.40;;;13.70;99.90;;;;;;5024421;28;20475;-76
2021/05/17 08:41:05;;;;;;;1.20;0.47;;;13.70;99.90;;;;;;5021268;28;20468;-76
2021/05/17 08:43:37;;;;;;;1.00;0.80;;;13.70;99.90;;;;;;5026129;28;21039;-75
2021/05/17 08:46:05;;;;;;;0.93;0.40;;;13.50;99.90;;;;;;5025620;28;20558;-77
2021/05/17 08:48:33;;;;;;;0.97;0.47;;;13.50;99.90;;;;;;5026548;28;20555;-75
2021/05/17 08:51:01;;;;;;;0.97;0.50;;;13.30;99.90;;;;;;5028843;28;20505;-77
2021/05/17 08:53:29;;;;;;;1.27;0.60;;;13.40;99.90;;;;;;5029104;28;20484;-76
2021/05/17 08:55:57;;;;;;;1.30;0.50;;;13.40;99.90;;;;;;5035707;28;20448;-78
2021/05/17 08:58:25;;;;;;;0.97;0.50;;;13.50;99.90;;;;;;5023894;28;20201;-76
2021/05/17 09:00:53;;;;;;;0.40;0.40;;;13.60;99.90;;;;;;5022257;28;20484;-77
2021/05/17 09:03:21;;;;;;;3.97;2.00;;;13.50;99.90;;;;;;5025188;28;20483;-79
2021/05/17 09:05:49;;;;;;;0.70;0.70;;;13.60;99.90;;;;;;5024557;28;20466;-78
2021/05/17 09:08:18;;;;;;;0.63;0.50;;;13.80;99.90;;;;;;5022301;28;20467;-77
2021/05/17 09:10:47;;;;;;;0.83;0.57;;;13.40;99.90;;;;;;5012453;28;20459;-78
2021/05/17 09:13:16;;;;;;;1.77;0.50;;;13.30;99.90;;;;;;5018555;28;20870;-77
2021/05/17 09:15:46;;;;;;;1.47;0.60;;;13.40;99.90;;;;;;5024596;28;21017;-78
2021/05/17 09:18:16;;;;;;;0.77;0.67;;;13.50;99.90;;;;;;5039640;28;20569;-77
2021/05/17 09:20:45;;;;;;;2.00;0.60;;;13.60;99.90;;;;;;5026801;28;20512;-78
2021/05/17 09:23:18;;;;;;;1.60;0.60;;;13.70;99.90;;;;;;5026156;28;20507;-78
2021/05/17 09:26:01;;;;;;;0.90;0.50;;;13.50;99.90;;;;;;5026836;28;20526;-77
2021/05/17 09:28:31;;;;;;;0.53;0.50;;;13.50;99.90;;;;;;5025687;28;21172;-78
2021/05/17 09:31:05;;;;;;;0.50;0.50;;;13.40;99.90;;;;;;5029829;28;21011;-78
2021/05/17 09:33:45;;;;;;;0.40;0.40;;;13.30;99.90;;;;;;5030170;28;20475;-78
2021/05/17 09:36:26;;;;;;;0.90;0.60;;;13.20;1.00;;;;;;5026432;28;20953;-78
2021/05/17 09:38:59;;;;;;;0.83;0.40;;;13.50;1.00;;;;;;5022820;28;20464;-78
2021/05/17 09:41:42;;;;;;;1.00;0.70;;;13.70;1.00;;;;;;5024028;28;20493;-77
2021/05/17 09:44:10;;;;;;;1.13;0.40;;;13.80;1.00;;;;;;5025401;28;20212;-78
2021/05/17 09:47:05;;;;;;;0.50;0.50;;;14.00;1.00;;;;;;5025715;28;20441;-78
2021/05/17 09:49:37;;;;;;;0.63;0.47;;;13.70;99.90;;;;;;5011766;28;20467;-78
2021/05/17 09:52:11;;;;;;;1.20;0.50;;;13.70;99.90;;;;;;5024636;28;20474;-77
2021/05/17 09:54:56;;;;;;;0.83;0.60;;;13.90;99.90;;;;;;5024281;28;20494;-78
2021/05/17 09:57:31;;;;;;;0.60;0.40;;;14.00;99.90;;;;;;5021717;28;20460;-77
2021/05/17 10:00:05;;;;;;;0.80;0.70;;;14.00;99.90;;;;;;5027009;28;20461;-78
2021/05/17 10:02:39;;;;;;;0.77;0.40;;;13.70;99.90;;;;;;5029203;28;20551;-77
2021/05/17 10:05:18;;;;;;;0.80;0.40;;;13.70;99.90;;;;;;5030440;28;20440;-77
2021/05/17 10:07:47;;;;;;;0.57;0.50;;;13.70;99.90;;;;;;5009995;28;20455;-76
2021/05/17 10:10:36;;;;;;;0.70;0.50;;;13.90;99.90;;;;;;5016730;28;20484;-77
2021/05/17 10:13:06;;;;;;;0.90;0.50;;;13.90;99.90;;;;;;5023867;28;20570;-76
2021/05/17 10:15:35;;;;;;;0.53;0.50;;;14.00;99.90;;;;;;5025870;28;20461;-78
2021/05/17 10:18:13;;;;;;;1.07;0.50;;;14.00;99.90;;;;;;5024071;28;20549;-78
2021/05/17 10:20:42;;;;;;;0.73;0.60;;;14.10;99.90;;;;;;5024695;28;22135;-77
2021/05/17 10:23:13;;;;;;;0.97;0.40;;;14.10;99.90;;;;;;5022312;28;20486;-77
2021/05/17 10:25:42;;;;;;;2.70;0.57;;;14.00;99.90;;;;;;5025346;28;21277;-78
2021/05/17 10:28:13;;;;;;;1.00;0.50;;;13.70;99.90;;;;;;5022850;28;20455;-77
2021/05/17 10:30:41;;;;;;;2.07;0.70;;;13.50;1.00;;;;;;5024359;28;20463;-76
2021/05/17 10:33:10;;;;;;;0.60;0.50;;;13.20;1.00;;;;;;5023446;28;20485;-76
2021/05/17 10:35:49;;;;;;;0.90;0.60;;;13.40;1.00;;;;;;5025953;28;20468;-77
2021/05/17 10:38:22;;;;;;;1.33;0.50;;;13.60;1.00;;;;;;5027618;28;20459;-75
2021/05/17 10:40:55;;;;;;;0.40;0.40;;;13.70;1.00;;;;;;5027195;28;20517;-78
2021/05/17 10:43:50;;;;;;;0.53;0.50;;;13.50;1.00;;;;;;5026302;28;20482;-77
2021/05/17 10:46:40;;;;;;;0.63;0.50;;;13.50;1.00;;;;;;5024966;28;20477;-76
2021/05/17 10:49:29;;;;;;;0.70;0.50;;;13.60;1.00;;;;;;5027781;28;20467;-78
2021/05/17 10:52:22;;;;;;;2.27;0.50;;;13.60;1.00;;;;;;5027550;28;20844;-77
2021/05/17 10:55:01;;;;;;;0.60;0.60;;;13.40;1.00;;;;;;5028493;28;20476;-77
2021/05/17 10:57:33;;;;;;;0.70;0.60;;;13.30;1.00;;;;;;5025391;28;20459;-76
2021/05/17 11:02:46;;;;;;;1.33;0.50;;;13.60;1.00;;;;;;5026582;28;20569;-77
2021/05/17 11:05:18;;;;;;;0.97;0.60;;;13.60;1.00;;;;;;5026912;28;20870;-74
2021/05/17 11:07:48;;;;;;;1.13;0.50;;;13.50;1.00;;;;;;5026254;28;21231;-77
2021/05/17 11:10:21;;;;;;;0.83;0.50;;;13.70;1.00;;;;;;5027416;28;20466;-75
2021/05/17 11:13:08;;;;;;;0.70;0.60;;;13.90;1.00;;;;;;5027097;28;20553;-77
2021/05/17 11:15:43;;;;;;;0.50;0.50;;;14.10;99.90;;;;;;5025361;28;20492;-77
2021/05/17 11:18:22;;;;;;;1.53;0.40;;;14.10;99.90;;;;;;5023604;28;20559;-76
2021/05/17 11:20:55;;;;;;;1.40;0.63;;;13.90;99.90;;;;;;5026765;28;20964;-77
2021/05/17 11:23:48;;;;;;;0.70;0.53;;;13.90;99.90;;;;;;5026975;28;20567;-78
2021/05/17 11:26:22;;;;;;;1.90;0.50;;;13.80;99.90;;;;;;5025081;28;20507;-78
2021/05/17 11:29:09;;;;;;;1.33;0.60;;;13.60;1.00;;;;;;5027691;28;20531;-76
2021/05/17 11:31:45;;;;;;;0.60;0.60;;;13.80;99.90;;;;;;5026727;28;20541;-76
2021/05/17 11:34:15;;;;;;;1.13;0.50;;;14.00;33.40;;;;;;5039245;28;20473;-76
2021/05/17 11:36:47;;;;;;;0.60;0.50;;;14.10;35.10;;;;;;5026272;28;20458;-75
2021/05/17 11:39:19;;;;;;;6.97;1.17;;;14.20;1.00;;;;;;5058762;28;20498;-75
2021/05/17 11:41:49;;;;;;;0.77;0.40;;;14.20;1.00;;;;;;5027278;28;20471;-77
2021/05/17 11:44:21;;;;;;;4.20;1.03;;;14.30;1.00;;;;;;5027068;28;21030;-76
2021/05/17 11:46:53;;;;;;;1.23;0.63;;;14.50;1.00;;;;;;5025581;28;20968;-76
2021/05/17 11:49:22;;;;;;;1.10;0.70;;;14.60;99.90;;;;;;5025448;28;20465;-76
2021/05/17 11:51:52;;;;;;;1.17;0.80;;;14.80;99.90;;;;;;5030928;28;20475;-76
2021/05/17 11:54:22;;;;;;;1.07;0.67;;;14.90;99.90;;;;;;5021101;28;21004;-75
2021/05/17 11:56:52;;;;;;;1.63;0.70;;;15.00;99.90;;;;;;5019289;28;20461;-75
2021/05/17 11:59:22;;;;;;;1.17;0.50;;;15.10;99.90;;;;;;5022376;28;20463;-76
2021/05/17 12:01:52;;;;;;;1.37;0.40;;;15.30;99.90;;;;;;5021816;28;20480;-77
2021/05/17 12:04:22;;;;;;;1.03;0.40;;;15.40;99.90;;;;;;5023630;28;20448;-77
2021/05/17 12:06:52;;;;;;;0.40;0.40;;;15.40;99.90;;;;;;5023512;28;20461;-76
2021/05/17 12:09:32;;;;;;;0.80;0.60;;;15.30;99.90;;;;;;5022637;28;20465;-77
2021/05/17 12:12:02;;;;;;;0.50;0.43;;;15.40;99.90;;;;;;5024354;28;20487;-78
2021/05/17 12:14:31;;;;;;;0.40;0.40;;;15.50;99.90;;;;;;5023302;28;21169;-77
2021/05/17 12:17:10;;;;;;;0.73;0.40;;;15.60;99.90;;;;;;5025659;28;20470;-76
2021/05/17 12:19:40;;;;;;;0.40;0.40;;;15.60;99.90;;;;;;5027727;28;20970;-77
2021/05/17 12:22:10;;;;;;;1.37;0.50;;;15.50;99.90;;;;;;5025792;28;20481;-76
2021/05/17 12:24:39;;;;;;;0.50;0.50;;;15.50;99.90;;;;;;5025040;28;20450;-77
2021/05/17 12:27:08;;;;;;;2.00;0.47;;;15.60;99.90;;;;;;5026119;28;20460;-77
2021/05/17 12:29:55;;;;;;;0.40;0.40;;;15.60;99.90;;;;;;5023125;28;20443;-77
2021/05/17 12:32:25;;;;;;;0.47;0.40;;;15.50;99.90;;;;;;5023063;28;20894;-79
2021/05/17 12:34:55;;;;;;;0.50;0.50;;;15.70;99.90;;;;;;5032021;28;20479;-76
2021/05/17 12:37:25;;;;;;;1.07;0.30;;;15.50;99.90;;;;;;5025912;28;20498;-79
2021/05/17 12:40:21;;;;;;;2.10;0.50;;;15.60;99.90;;;;;;5026867;28;20461;-79
2021/05/17 12:43:02;;;;;;;0.50;0.50;;;15.50;99.90;;;;;;5023252;28;20466;-77
2021/05/17 12:45:30;;;;;;;0.40;0.40;;;15.50;99.90;;;;;;5028972;28;20830;-77
2021/05/17 12:47:58;;;;;;;0.50;0.40;;;15.60;99.90;;;;;;5027682;28;20454;-77
2021/05/17 12:50:28;;;;;;;0.40;0.40;;;15.80;99.90;;;;;;5026004;28;20507;-75
2021/05/17 12:53:07;;;;;;;0.40;0.40;;;15.70;99.90;;;;;;5025893;28;20572;-79
2021/05/17 12:55:41;;;;;;;1.23;0.40;;;15.80;99.90;;;;;;5027779;28;21078;-78
2021/05/17 12:58:10;;;;;;;0.50;0.40;;;15.80;99.90;;;;;;5017689;28;20453;-76
2021/05/17 13:00:46;;;;;;;0.40;0.40;;;15.90;99.90;;;;;;5029928;28;20442;-77
2021/05/17 13:03:17;;;;;;;1.13;0.80;;;16.00;99.90;;;;;;5028714;28;20474;-75
2021/05/17 13:05:53;;;;;;;0.50;0.50;;;16.00;99.90;;;;;;5030367;28;20446;-77
2021/05/17 13:08:22;;;;;;;0.60;0.50;;;15.90;99.90;;;;;;5027100;28;20445;-77
2021/05/17 13:10:59;;;;;;;1.23;0.37;;;16.00;99.90;;;;;;5027021;28;20540;-76
2021/05/17 13:13:52;;;;;;;2.00;0.40;;;15.80;99.90;;;;;;5023569;28;20836;-78
2021/05/17 13:16:28;;;;;;;0.30;0.30;;;15.90;99.90;;;;;;5018865;28;20475;-77
2021/05/17 13:25:29;;;;;;;0.60;0.37;;;15.50;99.90;;;;;;5023175;28;20453;-78
2021/05/17 13:30:51;;;;;;;1.23;0.40;;;15.60;99.90;;;;;;5035721;28;20464;-78
2021/05/17 13:33:24;;;;;;;0.70;0.50;;;15.70;99.90;;;;;;5020961;28;20481;-78
2021/05/17 13:35:54;;;;;;;0.50;0.50;;;15.40;99.90;;;;;;5027809;28;20484;-77